Time;durP1;ratioP1;P1;durP2;ratioP2;P2;SDS_P1;SDS_P2;PMS_P1;PMS_P2;Temp;Humidity;BMP_temperature;BMP_pressure;BME280_temperature;BME280_humidity;BME280_pressure;Samples;Min_cycle;Max_cycle;Signal;HPM_P1;HPM_P2
2022/05/17 00:00:05;;;;;;;;;;;;;;;13.87;72.34;96954.06;5074525;28;19954;-71
2022/05/17 00:02:33;;;;;;;;;;;;;;;13.86;72.41;96951.66;5074354;28;19953;-71
2022/05/17 00:04:59;;;;;;;;;;;;;;;13.85;72.19;96952.69;5074593;28;20016;-71
2022/05/17 00:07:25;;;;;;;;;;;;;;;13.82;72.58;96959.22;5072666;28;19985;-71
2022/05/17 00:09:51;;;;;;;;;;;;;;;13.80;72.23;96958.66;5074223;28;20013;-71
2022/05/17 00:12:17;;;;;;;;;;;;;;;13.78;72.63;96952.81;5074020;28;20010;-71
2022/05/17 00:14:43;;;;;;;;;;;;;;;13.75;72.90;96954.06;5074021;28;19961;-71
2022/05/17 00:17:09;;;;;;;;;;;;;;;13.75;72.92;96958.50;5074008;28;19974;-71
2022/05/17 00:19:35;;;;;;;;;;;;;;;13.72;72.94;96962.41;5072314;28;20004;-71
2022/05/17 00:22:02;;;;;;;;;;;;;;;13.69;72.71;96956.78;5066755;28;19957;-71
2022/05/17 00:24:28;;;;;;;;;;;;;;;13.68;72.33;96957.81;5074008;28;19956;-71
2022/05/17 00:26:53;;;;;;;;;;;;;;;13.65;72.19;96953.81;5074057;28;20475;-71
2022/05/17 00:29:20;;;;;;;;;;;;;;;13.65;72.59;96952.97;5073732;28;20010;-71
2022/05/17 00:31:47;;;;;;;;;;;;;;;13.62;72.36;96956.06;5073923;28;20021;-71
2022/05/17 00:34:13;;;;;;;;;;;;;;;13.60;72.62;96953.66;5072216;28;19983;-71
2022/05/17 00:36:40;;;;;;;;;;;;;;;13.58;72.66;96953.88;5073827;28;20400;-71
2022/05/17 00:39:06;;;;;;;;;;;;;;;13.57;72.63;96946.22;5059797;28;19967;-71
2022/05/17 00:41:32;;;;;;;;;;;;;;;13.54;72.68;96944.84;5071700;28;20052;-71
2022/05/17 00:46:46;;;;;;;;;;;;;;;13.52;73.01;96952.16;5065631;28;19973;-71
2022/05/17 00:49:14;;;;;;;;;;;;;;;13.49;73.39;96955.22;5073528;28;20428;-71
2022/05/17 00:51:41;;;;;;;;;;;;;;;13.49;73.31;96946.53;5070430;28;19971;-73
2022/05/17 00:54:10;;;;;;;;;;;;;;;13.46;73.47;96952.22;5058602;28;20334;-71
2022/05/17 00:56:38;;;;;;;;;;;;;;;13.43;73.65;96950.03;5068296;28;20502;-71
2022/05/17 00:59:07;;;;;;;;;;;;;;;13.40;73.35;96948.66;5073563;28;19950;-71
2022/05/17 01:01:33;;;;;;;;;;;;;;;13.37;73.49;96942.00;5073469;28;19956;-71
2022/05/17 01:04:12;;;;;;;;;;;;;;;13.34;73.41;96939.03;5073283;28;19951;-71
2022/05/17 01:06:40;;;;;;;;;;;;;;;13.31;73.34;96931.56;5073172;28;19980;-71
2022/05/17 01:09:06;;;;;;;;;;;;;;;13.29;73.54;96936.22;5071838;28;19955;-71
2022/05/17 01:11:32;;;;;;;;;;;;;;;13.26;73.49;96928.75;5071241;28;19975;-71
2022/05/17 01:16:42;;;;;;;;;;;;;;;13.20;73.67;96930.44;5073398;28;19954;-71
2022/05/17 01:19:09;;;;;;;;;;;;;;;13.18;73.59;96935.13;5073716;28;19954;-71
2022/05/17 01:21:35;;;;;;;;;;;;;;;13.18;74.39;96935.13;5073270;28;19964;-71
2022/05/17 01:24:01;;;;;;;;;;;;;;;13.17;74.64;96934.34;5071737;28;19972;-71
2022/05/17 01:26:29;;;;;;;;;;;;;;;13.19;74.78;96942.81;5071489;28;19971;-71
2022/05/17 01:28:55;;;;;;;;;;;;;;;13.20;75.20;96946.25;5073074;28;19949;-71
2022/05/17 01:31:21;;;;;;;;;;;;;;;13.20;75.71;96939.16;5073178;28;20397;-71
2022/05/17 01:33:47;;;;;;;;;;;;;;;13.20;75.68;96943.63;5073307;28;20353;-71
2022/05/17 01:36:15;;;;;;;;;;;;;;;13.20;75.30;96938.34;5073167;28;19962;-71
2022/05/17 01:38:45;;;;;;;;;;;;;;;13.20;74.80;96947.03;5066431;28;19969;-71
2022/05/17 01:41:11;;;;;;;;;;;;;;;13.20;74.91;96946.25;5073241;28;19966;-71
2022/05/17 01:43:37;;;;;;;;;;;;;;;13.18;75.50;96943.84;5073108;28;19962;-71
2022/05/17 01:46:06;;;;;;;;;;;;;;;13.15;74.95;96939.03;5073363;28;19963;-71
2022/05/17 01:48:33;;;;;;;;;;;;;;;13.11;75.35;96937.84;5072672;28;19981;-71
2022/05/17 01:50:58;;;;;;;;;;;;;;;13.08;75.37;96940.94;5071867;28;20036;-71
2022/05/17 01:53:24;;;;;;;;;;;;;;;13.04;75.17;96934.50;5067443;28;20014;-71
2022/05/17 01:55:50;;;;;;;;;;;;;;;13.02;74.39;96938.38;5076756;28;20051;-71
2022/05/17 01:58:16;;;;;;;;;;;;;;;12.98;74.55;96936.19;5076832;28;19954;-71
2022/05/17 02:00:43;;;;;;;;;;;;;;;12.98;75.02;96938.81;5076690;28;19981;-71
2022/05/17 02:03:09;;;;;;;;;;;;;;;12.96;75.39;96932.19;5076650;28;19963;-71
2022/05/17 02:05:35;;;;;;;;;;;;;;;12.95;75.62;96933.19;5073269;28;19951;-71
2022/05/17 02:08:01;;;;;;;;;;;;;;;12.92;75.64;96929.16;5064376;28;19988;-71
2022/05/17 02:10:27;;;;;;;;;;;;;;;12.90;75.83;96923.31;5076365;28;19993;-71
2022/05/17 02:12:54;;;;;;;;;;;;;;;12.88;75.22;96924.56;5076316;28;19955;-71
2022/05/17 02:15:20;;;;;;;;;;;;;;;12.86;75.86;96937.94;5071384;28;20438;-72
2022/05/17 02:17:46;;;;;;;;;;;;;;;12.85;75.96;96933.72;5072280;28;19967;-71
2022/05/17 02:20:11;;;;;;;;;;;;;;;12.84;75.70;96934.72;5076433;28;19967;-72
2022/05/17 02:22:37;;;;;;;;;;;;;;;12.83;75.75;96911.25;5076154;28;19956;-71
2022/05/17 02:25:04;;;;;;;;;;;;;;;12.83;76.23;96922.59;5076312;28;19961;-71
2022/05/17 02:27:30;;;;;;;;;;;;;;;12.79;75.66;96921.44;5076004;28;19972;-71
2022/05/17 02:29:56;;;;;;;;;;;;;;;12.75;75.31;96921.06;5069652;28;20071;-71
2022/05/17 02:32:22;;;;;;;;;;;;;;;12.74;75.72;96923.91;5076140;28;19966;-72
2022/05/17 02:34:47;;;;;;;;;;;;;;;12.73;75.69;96920.47;5075963;28;20001;-71
2022/05/17 02:37:15;;;;;;;;;;;;;;;12.73;76.15;96927.56;5076297;28;19964;-71
2022/05/17 02:39:41;;;;;;;;;;;;;;;12.72;76.76;96934.66;5075906;28;19959;-71
2022/05/17 02:42:09;;;;;;;;;;;;;;;12.72;76.71;96942.53;5074365;28;19957;-72
2022/05/17 02:44:34;;;;;;;;;;;;;;;12.74;77.27;96942.31;5076277;28;19976;-71
2022/05/17 02:47:00;;;;;;;;;;;;;;;12.73;77.74;96948.63;5075989;28;20434;-71
2022/05/17 02:49:27;;;;;;;;;;;;;;;12.70;76.62;96949.06;5075753;28;19949;-71
2022/05/17 02:51:54;;;;;;;;;;;;;;;12.66;76.38;96950.50;5075807;28;19956;-71
2022/05/17 02:54:21;;;;;;;;;;;;;;;12.61;76.18;96948.53;5074876;28;19949;-71
2022/05/17 02:56:47;;;;;;;;;;;;;;;12.57;75.81;96956.06;5075720;28;19953;-71
2022/05/17 02:59:17;;;;;;;;;;;;;;;12.56;76.09;96959.72;5075566;28;19951;-71
2022/05/17 03:01:44;;;;;;;;;;;;;;;12.55;76.40;96962.56;5075766;28;19959;-71
2022/05/17 03:04:12;;;;;;;;;;;;;;;12.51;76.84;96962.19;5075395;28;19946;-71
2022/05/17 03:06:39;;;;;;;;;;;;;;;12.50;76.73;96965.84;5075017;28;20298;-71
2022/05/17 03:09:05;;;;;;;;;;;;;;;12.47;76.61;96960.22;5067764;28;19970;-71
2022/05/17 03:11:31;;;;;;;;;;;;;;;12.44;76.05;96968.56;5075338;28;19959;-71
2022/05/17 03:13:56;;;;;;;;;;;;;;;12.42;76.03;96962.69;5075419;28;19961;-72
2022/05/17 03:16:30;;;;;;;;;;;;;;;12.37;75.94;96966.78;5075309;28;19955;-71
2022/05/17 03:18:56;;;;;;;;;;;;;;;12.34;75.89;96964.56;5075207;28;19957;-71
2022/05/17 03:21:23;;;;;;;;;;;;;;;12.32;76.63;96977.13;5075254;28;19966;-71
2022/05/17 03:23:49;;;;;;;;;;;;;;;12.28;76.29;96980.41;5073281;28;19970;-71
2022/05/17 03:26:15;;;;;;;;;;;;;;;12.26;76.10;96985.88;5075181;28;19955;-71
2022/05/17 03:28:41;;;;;;;;;;;;;;;12.26;76.41;96983.25;5075155;28;19974;-71
2022/05/17 03:31:07;;;;;;;;;;;;;;;12.24;76.36;96984.47;5070935;28;19954;-71
2022/05/17 03:33:33;;;;;;;;;;;;;;;12.25;76.51;96980.84;5074768;28;19957;-72
2022/05/17 03:35:59;;;;;;;;;;;;;;;12.23;76.91;96983.69;5069499;28;19973;-71
2022/05/17 03:38:25;;;;;;;;;;;;;;;12.24;76.89;96987.13;5069457;28;19956;-71
2022/05/17 03:40:52;;;;;;;;;;;;;;;12.23;77.06;96977.63;5074640;28;20003;-71
2022/05/17 03:43:20;;;;;;;;;;;;;;;12.21;77.41;96977.84;5073181;28;19958;-71
2022/05/17 03:45:45;;;;;;;;;;;;;;;12.19;77.34;96983.31;5074658;28;19957;-72
2022/05/17 03:48:11;;;;;;;;;;;;;;;12.17;77.11;96980.09;5074374;28;19974;-71
2022/05/17 03:50:37;;;;;;;;;;;;;;;12.16;77.49;96985.56;5075073;28;19961;-71
2022/05/17 03:53:03;;;;;;;;;;;;;;;12.14;78.03;96974.47;5074395;28;19953;-71
2022/05/17 03:55:29;;;;;;;;;;;;;;;12.13;77.23;96984.16;5073362;28;19959;-72
2022/05/17 03:57:55;;;;;;;;;;;;;;;12.12;77.36;96982.56;5071723;28;19969;-71
2022/05/17 04:00:21;;;;;;;;;;;;;;;12.11;77.33;96986.19;5074238;28;20372;-72
2022/05/17 04:02:47;;;;;;;;;;;;;;;12.09;76.83;96985.59;5074426;28;20382;-71
2022/05/17 04:05:13;;;;;;;;;;;;;;;12.10;77.27;96992.50;5071453;28;19964;-72
2022/05/17 04:07:39;;;;;;;;;;;;;;;12.10;77.11;96989.06;5074128;28;20031;-71
2022/05/17 04:10:06;;;;;;;;;;;;;;;12.10;77.16;96999.56;5074158;28;19975;-71
2022/05/17 04:12:32;;;;;;;;;;;;;;;12.11;77.38;96995.91;5073914;28;19964;-71
2022/05/17 04:14:58;;;;;;;;;;;;;;;12.13;78.32;97009.66;5073637;28;20014;-72
2022/05/17 04:17:24;;;;;;;;;;;;;;;12.14;78.11;97006.03;5066284;28;20019;-71
2022/05/17 04:19:50;;;;;;;;;;;;;;;12.15;76.95;96997.09;5070119;28;19951;-71
2022/05/17 04:22:16;;;;;;;;;;;;;;;12.15;77.26;96997.09;5074307;28;20300;-71
2022/05/17 04:24:42;;;;;;;;;;;;;;;12.16;77.27;96996.88;5073964;28;20054;-72
2022/05/17 04:27:09;;;;;;;;;;;;;;;12.22;76.91;97002.31;5073776;28;20029;-71
2022/05/17 04:29:35;;;;;;;;;;;;;;;12.29;77.15;97008.34;5073780;28;19955;-72
2022/05/17 04:32:00;;;;;;;;;;;;;;;12.39;77.38;97009.44;5072725;28;20302;-71
2022/05/17 04:34:26;;;;;;;;;;;;;;;12.49;77.92;97010.78;5073782;28;19957;-71
2022/05/17 04:36:52;;;;;;;;;;;;;;;12.59;78.03;97006.63;5074011;28;20323;-71
2022/05/17 04:39:19;;;;;;;;;;;;;;;12.73;77.78;97015.22;5074246;28;20405;-71
2022/05/17 04:41:44;;;;;;;;;;;;;;;12.89;78.14;97013.88;5073595;28;19958;-71
2022/05/17 04:44:10;;;;;;;;;;;;;;;13.07;77.30;97007.78;5072672;28;19969;-72
2022/05/17 04:46:36;;;;;;;;;;;;;;;13.27;76.42;97001.47;5073702;28;20368;-72
2022/05/17 04:49:02;;;;;;;;;;;;;;;13.49;75.56;97007.13;5073507;28;20415;-71
2022/05/17 04:51:28;;;;;;;;;;;;;;;13.71;75.19;97003.00;5073481;28;19997;-72
2022/05/17 04:53:54;;;;;;;;;;;;;;;13.95;74.55;97010.97;5069166;28;19968;-72
2022/05/17 04:56:20;;;;;;;;;;;;;;;14.20;74.02;97006.31;5073935;28;20375;-71
2022/05/17 04:58:46;;;;;;;;;;;;;;;14.47;73.47;96999.78;5073586;28;19957;-72
2022/05/17 05:01:12;;;;;;;;;;;;;;;14.75;72.86;97001.78;5064897;28;19957;-72
2022/05/17 05:03:55;;;;;;;;;;;;;;;15.01;71.51;96998.66;5074059;28;19961;-71
2022/05/17 05:06:21;;;;;;;;;;;;;;;15.23;70.95;96993.56;5073334;28;19985;-72
2022/05/17 05:08:47;;;;;;;;;;;;;;;15.47;70.18;96990.84;5073145;28;20418;-72
2022/05/17 05:11:13;;;;;;;;;;;;;;;15.71;70.03;96990.75;5071454;28;19959;-72
2022/05/17 05:13:39;;;;;;;;;;;;;;;15.90;68.69;96983.47;5073572;28;19963;-72
2022/05/17 05:16:09;;;;;;;;;;;;;;;16.10;68.84;96989.06;5073700;28;19956;-71
2022/05/17 05:18:35;;;;;;;;;;;;;;;16.36;67.64;96982.34;5058356;28;20263;-75
2022/05/17 05:21:04;;;;;;;;;;;;;;;16.60;67.30;96982.97;5072499;28;19969;-72
2022/05/17 05:23:30;;;;;;;;;;;;;;;16.83;65.91;96984.63;5072870;28;19953;-72
2022/05/17 05:25:59;;;;;;;;;;;;;;;16.93;65.54;96988.47;5073204;28;20044;-72
2022/05/17 05:28:25;;;;;;;;;;;;;;;17.06;65.22;96984.66;5075217;28;19970;-72
2022/05/17 05:30:52;;;;;;;;;;;;;;;17.09;65.05;96984.16;5076263;28;19964;-72
2022/05/17 05:33:18;;;;;;;;;;;;;;;17.21;64.60;96983.00;5077649;28;19962;-72
2022/05/17 05:35:44;;;;;;;;;;;;;;;17.40;63.91;96985.34;5077078;28;19962;-72
2022/05/17 05:38:10;;;;;;;;;;;;;;;17.62;64.13;96996.72;5077192;28;19962;-73
2022/05/17 05:40:36;;;;;;;;;;;;;;;17.87;63.11;96984.81;5077001;28;19955;-72
2022/05/17 05:43:02;;;;;;;;;;;;;;;17.84;62.16;96974.69;5076846;28;20016;-72
2022/05/17 05:45:27;;;;;;;;;;;;;;;17.65;62.16;96979.50;5073730;28;20031;-72
2022/05/17 05:47:53;;;;;;;;;;;;;;;17.73;63.30;96992.31;5077086;28;19975;-72
2022/05/17 05:50:19;;;;;;;;;;;;;;;17.82;62.64;96985.53;5076830;28;20329;-72
2022/05/17 05:52:46;;;;;;;;;;;;;;;17.82;62.70;96982.88;5076769;28;19968;-72
2022/05/17 05:55:16;;;;;;;;;;;;;;;17.77;62.69;96992.63;5075228;28;19966;-72
2022/05/17 05:57:42;;;;;;;;;;;;;;;17.87;62.80;96991.94;5076748;28;19970;-72
2022/05/17 06:00:09;;;;;;;;;;;;;;;17.97;62.83;96992.84;5071640;28;19960;-72
2022/05/17 06:02:35;;;;;;;;;;;;;;;18.11;62.80;96995.09;5076832;28;19960;-72
2022/05/17 06:05:01;;;;;;;;;;;;;;;18.27;62.46;96986.22;5076553;28;19968;-72
2022/05/17 06:07:27;;;;;;;;;;;;;;;18.55;62.22;96990.38;5075390;28;20078;-72
2022/05/17 06:09:53;;;;;;;;;;;;;;;18.73;60.54;96983.03;5059176;28;19989;-72
2022/05/17 06:12:18;;;;;;;;;;;;;;;18.81;60.91;96985.25;5064702;28;19964;-72
2022/05/17 06:14:44;;;;;;;;;;;;;;;18.91;61.46;96992.50;5074363;28;20343;-72
2022/05/17 06:17:10;;;;;;;;;;;;;;;18.81;60.36;96974.63;5076573;28;19960;-72
2022/05/17 06:19:36;;;;;;;;;;;;;;;18.77;60.84;96978.81;5076254;28;19963;-72
2022/05/17 06:22:03;;;;;;;;;;;;;;;18.85;60.96;96971.19;5076196;28;20001;-72
2022/05/17 06:24:29;;;;;;;;;;;;;;;18.92;61.14;96978.94;5076326;28;20405;-72
2022/05/17 06:26:54;;;;;;;;;;;;;;;19.05;60.74;96985.66;5071211;28;19965;-72
2022/05/17 06:29:21;;;;;;;;;;;;;;;19.23;60.34;96984.38;5075926;28;20013;-72
2022/05/17 06:31:47;;;;;;;;;;;;;;;19.29;59.98;96969.25;5076432;28;20436;-73
2022/05/17 06:34:13;;;;;;;;;;;;;;;19.29;60.45;96982.56;5076160;28;19962;-72
2022/05/17 06:36:39;;;;;;;;;;;;;;;19.31;60.21;96980.44;5076466;28;19989;-72
2022/05/17 06:39:08;;;;;;;;;;;;;;;19.15;59.99;96972.41;5075230;28;19955;-72
2022/05/17 06:41:34;;;;;;;;;;;;;;;19.01;61.72;96992.56;5074513;28;20445;-72
2022/05/17 06:44:01;;;;;;;;;;;;;;;19.22;60.58;96983.59;5075759;28;19959;-72
2022/05/17 06:46:27;;;;;;;;;;;;;;;19.27;60.41;96980.94;5064405;28;19963;-73
2022/05/17 06:49:08;;;;;;;;;;;;;;;19.32;61.01;96993.50;5074869;28;19971;-72
2022/05/17 06:51:35;;;;;;;;;;;;;;;19.30;60.90;96987.63;5075606;28;19958;-72
2022/05/17 06:54:01;;;;;;;;;;;;;;;19.47;60.56;96990.88;5069126;28;20418;-72
2022/05/17 06:56:27;;;;;;;;;;;;;;;19.62;60.49;96986.66;5071051;28;19973;-72
2022/05/17 06:58:53;;;;;;;;;;;;;;;19.86;59.91;96987.81;5075588;28;19951;-72
2022/05/17 07:01:19;;;;;;;;;;;;;;;20.06;58.99;96984.34;5072605;28;19958;-72
2022/05/17 07:03:44;;;;;;;;;;;;;;;20.17;59.44;96981.69;5075547;28;19967;-72
2022/05/17 07:06:10;;;;;;;;;;;;;;;20.41;60.23;96990.75;5071799;28;19987;-72
2022/05/17 07:08:36;;;;;;;;;;;;;;;20.57;58.13;96961.44;5069049;28;19986;-72
2022/05/17 07:13:47;;;;;;;;;;;;;;;20.87;57.53;96961.41;5064922;28;20412;-72
2022/05/17 07:16:13;;;;;;;;;;;;;;;20.99;57.74;96961.06;5075118;28;19953;-72
2022/05/17 07:18:39;;;;;;;;;;;;;;;20.87;57.25;96958.72;5075233;28;19999;-72
2022/05/17 07:21:05;;;;;;;;;;;;;;;20.72;56.86;96952.63;5065828;28;19978;-72
2022/05/17 07:23:31;;;;;;;;;;;;;;;20.72;58.12;96965.94;5075292;28;19967;-72
2022/05/17 07:25:58;;;;;;;;;;;;;;;20.71;58.42;96973.16;5068427;28;19966;-72
2022/05/17 07:28:24;;;;;;;;;;;;;;;20.67;56.34;96951.56;5070587;28;19969;-72
2022/05/17 07:30:51;;;;;;;;;;;;;;;20.63;57.22;96952.38;5075185;28;19956;-72
2022/05/17 07:33:17;;;;;;;;;;;;;;;20.79;58.24;96969.13;5074752;28;19969;-72
2022/05/17 07:35:43;;;;;;;;;;;;;;;21.02;57.39;96952.53;5075222;28;19966;-72
2022/05/17 07:38:09;;;;;;;;;;;;;;;21.19;55.66;96943.41;5074790;28;19963;-72
2022/05/17 07:40:36;;;;;;;;;;;;;;;21.04;56.19;96945.06;5074620;28;19981;-75
2022/05/17 07:43:02;;;;;;;;;;;;;;;20.95;56.92;96953.91;5073340;28;19957;-72
2022/05/17 07:45:28;;;;;;;;;;;;;;;20.90;56.46;96951.25;5072993;28;19961;-72
2022/05/17 07:48:17;;;;;;;;;;;;;;;20.93;57.09;96954.16;5058524;28;19977;-72
2022/05/17 07:50:43;;;;;;;;;;;;;;;21.14;57.38;96959.41;5073614;28;19963;-72
2022/05/17 07:53:11;;;;;;;;;;;;;;;21.35;57.20;96957.47;5074584;28;19960;-72
2022/05/17 07:55:37;;;;;;;;;;;;;;;21.36;57.24;96959.06;5074407;28;19969;-72
2022/05/17 07:58:24;;;;;;;;;;;;;;;21.38;57.04;96954.25;5059849;28;19957;-72
2022/05/17 08:00:50;;;;;;;;;;;;;;;21.45;56.49;96952.09;5063192;28;19962;-72
2022/05/17 08:03:18;;;;;;;;;;;;;;;21.38;56.80;96952.38;5074208;28;19954;-72
2022/05/17 08:05:44;;;;;;;;;;;;;;;21.45;57.35;96968.13;5063813;28;19985;-72
2022/05/17 08:08:10;;;;;;;;;;;;;;;21.64;58.10;96968.28;5072888;28;20441;-72
2022/05/17 08:10:37;;;;;;;;;;;;;;;21.62;56.54;96947.19;5074060;28;19969;-72
2022/05/17 08:13:03;;;;;;;;;;;;;;;21.40;56.56;96952.13;5074489;28;19956;-72
2022/05/17 08:15:30;;;;;;;;;;;;;;;21.19;57.88;96970.09;5073879;28;19970;-72
2022/05/17 08:17:57;;;;;;;;;;;;;;;21.27;57.52;96956.97;5073978;28;19969;-72
2022/05/17 08:20:23;;;;;;;;;;;;;;;21.39;58.32;96969.19;5072526;28;20338;-72
2022/05/17 08:22:49;;;;;;;;;;;;;;;21.40;57.81;96962.78;5074064;28;19966;-72
2022/05/17 08:28:02;;;;;;;;;;;;;;;21.59;57.57;96952.31;5060576;28;20073;-72
2022/05/17 08:30:28;;;;;;;;;;;;;;;21.65;57.11;96948.53;5068558;28;19961;-72
2022/05/17 08:33:17;;;;;;;;;;;;;;;21.55;57.06;96953.94;5073865;28;20447;-72
2022/05/17 08:35:51;;;;;;;;;;;;;;;21.57;56.85;96946.44;5067032;28;20327;-72
2022/05/17 08:38:22;;;;;;;;;;;;;;;21.60;57.38;96949.34;5073688;28;19954;-72
2022/05/17 08:41:05;;;;;;;;;;;;;;;21.73;57.14;96944.47;5072527;28;19958;-72
2022/05/17 08:43:40;;;;;;;;;;;;;;;21.85;56.96;96951.03;5073590;28;19965;-72
2022/05/17 08:46:08;;;;;;;;;;;;;;;21.79;57.32;96946.81;5073828;28;19957;-72
2022/05/17 08:48:40;;;;;;;;;;;;;;;21.75;58.51;96955.66;5073393;28;19978;-72
2022/05/17 08:51:07;;;;;;;;;;;;;;;21.83;57.89;96955.88;5074457;28;19960;-72
2022/05/17 08:53:33;;;;;;;;;;;;;;;21.91;58.15;96954.50;5070371;28;19984;-72
2022/05/17 08:55:59;;;;;;;;;;;;;;;21.90;57.19;96947.53;5073658;28;20428;-72
2022/05/17 08:58:30;;;;;;;;;;;;;;;21.88;57.63;96950.50;5073338;28;19964;-72
2022/05/17 09:00:59;;;;;;;;;;;;;;;21.85;56.81;96935.03;5069941;28;19961;-72
2022/05/17 09:03:59;;;;;;;;;;;;;;;21.97;57.85;96950.72;5077192;28;19958;-72
2022/05/17 09:06:43;;;;;;;;;;;;;;;22.18;57.51;96947.88;5065049;28;19989;-72
2022/05/17 09:09:19;;;;;;;;;;;;;;;22.08;57.70;96943.41;5073684;28;19969;-72
2022/05/17 09:11:51;;;;;;;;;;;;;;;22.20;57.21;96951.84;5072283;28;19955;-72
2022/05/17 09:14:19;;;;;;;;;;;;;;;22.40;56.68;96937.53;5073578;28;19970;-73
2022/05/17 09:16:49;;;;;;;;;;;;;;;22.61;57.28;96943.47;5063101;28;19968;-72
2022/05/17 09:19:15;;;;;;;;;;;;;;;22.68;55.16;96921.78;5073125;28;19963;-72
2022/05/17 09:21:42;;;;;;;;;;;;;;;22.60;55.26;96920.50;5071726;28;19961;-72
2022/05/17 09:24:12;;;;;;;;;;;;;;;22.61;56.05;96932.78;5073470;28;19969;-72
2022/05/17 09:26:38;;;;;;;;;;;;;;;22.69;55.78;96928.69;5073356;28;19959;-72
2022/05/17 09:29:07;;;;;;;;;;;;;;;22.72;54.46;96922.81;5073420;28;19965;-72
2022/05/17 09:31:34;;;;;;;;;;;;;;;22.66;54.03;96908.69;5072113;28;19963;-72
2022/05/17 09:34:02;;;;;;;;;;;;;;;22.65;55.15;96922.31;5071455;28;19965;-72
2022/05/17 09:36:48;;;;;;;;;;;;;;;22.73;54.53;96921.72;5073337;28;19964;-72
2022/05/17 09:39:18;;;;;;;;;;;;;;;22.81;53.90;96901.56;5062113;28;19968;-72
2022/05/17 09:41:44;;;;;;;;;;;;;;;22.95;54.00;96909.69;5073318;28;19948;-72
2022/05/17 09:44:12;;;;;;;;;;;;;;;22.95;50.93;96874.91;5073052;28;20488;-72
2022/05/17 09:46:45;;;;;;;;;;;;;;;22.99;53.54;96910.69;5073545;28;19958;-72
2022/05/17 09:54:54;;;;;;;;;;;;;;;23.24;54.63;96920.31;5058712;28;20310;-72
2022/05/17 09:57:21;;;;;;;;;;;;;;;23.40;52.79;96912.91;5072862;28;20421;-72
2022/05/17 09:59:48;;;;;;;;;;;;;;;23.23;52.13;96894.66;5072947;28;19971;-72
2022/05/17 10:02:29;;;;;;;;;;;;;;;23.05;51.95;96886.31;5071310;28;19966;-72
2022/05/17 10:05:21;;;;;;;;;;;;;;;23.06;50.78;96887.91;5041658;28;20129;-72
2022/05/17 10:07:49;;;;;;;;;;;;;;;23.19;51.46;96890.97;5050853;28;20466;-72
2022/05/17 10:10:42;;;;;;;;;;;;;;;23.27;51.62;96883.09;5050587;28;19970;-72
2022/05/17 10:13:20;;;;;;;;;;;;;;;23.42;52.51;96887.41;5048283;28;20548;-72
2022/05/17 10:15:51;;;;;;;;;;;;;;;23.53;52.25;96890.75;5051600;28;19960;-76
2022/05/17 10:18:37;;;;;;;;;;;;;;;23.60;51.65;96885.84;5054455;28;19962;-72
2022/05/17 10:21:25;;;;;;;;;;;;;;;23.50;49.71;96862.69;5032718;28;19952;-72
2022/05/17 10:24:06;;;;;;;;;;;;;;;23.21;50.81;96870.84;5053238;28;19977;-72
2022/05/17 10:26:46;;;;;;;;;;;;;;;23.29;52.59;96888.94;5054180;28;19960;-72
2022/05/17 10:29:27;;;;;;;;;;;;;;;23.46;51.45;96859.00;5058021;28;19982;-73
2022/05/17 10:32:01;;;;;;;;;;;;;;;23.74;52.17;96874.38;5065312;28;19988;-75
2022/05/17 10:34:33;;;;;;;;;;;;;;;24.00;51.29;96853.34;5068295;28;19969;-72
2022/05/17 10:37:02;;;;;;;;;;;;;;;24.19;48.57;96813.88;5076004;28;19962;-72
2022/05/17 10:39:46;;;;;;;;;;;;;;;24.34;47.46;96804.75;5070452;28;19956;-72
2022/05/17 10:42:13;;;;;;;;;;;;;;;24.53;47.09;96807.38;5074380;28;20387;-72
2022/05/17 10:44:43;;;;;;;;;;;;;;;24.60;45.20;96786.28;5074040;28;19954;-72
2022/05/17 10:47:14;;;;;;;;;;;;;;;24.51;47.57;96847.88;5072677;28;20329;-72
2022/05/17 10:49:46;;;;;;;;;;;;;;;24.44;47.01;96841.28;5066706;28;19974;-72
2022/05/17 10:52:22;;;;;;;;;;;;;;;24.40;46.43;96854.50;5075736;28;19953;-72
2022/05/17 10:55:03;;;;;;;;;;;;;;;24.48;48.59;96861.88;5072661;28;19955;-72
2022/05/17 10:57:38;;;;;;;;;;;;;;;24.47;46.22;96840.69;5075654;28;19966;-72
2022/05/17 11:00:24;;;;;;;;;;;;;;;24.30;47.23;96855.47;5076101;28;19977;-72
2022/05/17 11:02:56;;;;;;;;;;;;;;;24.24;48.49;96864.69;5064038;28;19985;-72
2022/05/17 11:05:29;;;;;;;;;;;;;;;24.47;48.54;96864.81;5073726;28;19957;-72
2022/05/17 11:07:54;;;;;;;;;;;;;;;24.75;46.31;96838.81;5075383;28;19957;-72
2022/05/17 11:10:20;;;;;;;;;;;;;;;24.86;43.84;96818.75;5075668;28;19981;-72
2022/05/17 11:12:52;;;;;;;;;;;;;;;24.76;44.72;96836.91;5075312;28;19953;-72
2022/05/17 11:15:27;;;;;;;;;;;;;;;24.62;44.21;96823.53;5075810;28;20409;-72
2022/05/17 11:17:58;;;;;;;;;;;;;;;24.45;39.13;96783.91;5065506;28;19960;-72
2022/05/17 11:20:27;;;;;;;;;;;;;;;24.51;42.55;96823.75;5075425;28;19983;-72
2022/05/17 11:23:04;;;;;;;;;;;;;;;24.75;44.35;96844.19;5075064;28;19951;-72
2022/05/17 11:25:40;;;;;;;;;;;;;;;25.05;42.61;96813.25;5075214;28;19955;-72
2022/05/17 11:28:12;;;;;;;;;;;;;;;25.26;40.80;96813.59;5075126;28;19953;-72
2022/05/17 11:30:48;;;;;;;;;;;;;;;25.33;40.87;96789.03;5071705;28;20440;-72
2022/05/17 11:33:23;;;;;;;;;;;;;;;25.29;40.97;96802.25;5075518;28;19954;-72
2022/05/17 11:35:50;;;;;;;;;;;;;;;25.27;41.83;96815.19;5070043;28;20338;-72
2022/05/17 11:38:18;;;;;;;;;;;;;;;25.28;42.12;96803.34;5067441;28;19968;-72
2022/05/17 11:40:47;;;;;;;;;;;;;;;25.36;40.80;96788.41;5067440;28;19962;-72
2022/05/17 11:46:03;;;;;;;;;;;;;;;25.58;41.18;96797.56;5060187;28;19961;-72
2022/05/17 11:48:46;;;;;;;;;;;;;;;25.65;37.96;96838.19;5070471;28;19970;-72
2022/05/17 11:51:12;;;;;;;;;;;;;;;25.72;41.56;96863.56;5065351;28;19962;-72
2022/05/17 11:53:43;;;;;;;;;;;;;;;25.68;38.59;96842.94;5068778;28;19965;-72
2022/05/17 11:56:18;;;;;;;;;;;;;;;25.70;39.74;96851.50;5074525;28;19956;-72
2022/05/17 11:58:46;;;;;;;;;;;;;;;25.45;40.59;96872.50;5067134;28;19962;-72
2022/05/17 12:01:30;;;;;;;;;;;;;;;25.30;39.66;96868.28;5068145;28;19961;-72
2022/05/17 12:03:57;;;;;;;;;;;;;;;25.02;39.29;96867.50;5070086;28;19963;-72
2022/05/17 12:06:28;;;;;;;;;;;;;;;24.82;41.44;96876.78;5074106;28;19992;-73
2022/05/17 12:08:54;;;;;;;;;;;;;;;25.01;41.90;96875.84;5065010;28;19980;-72
2022/05/17 12:11:32;;;;;;;;;;;;;;;25.07;41.40;96871.97;5069263;28;19969;-72
2022/05/17 12:14:01;;;;;;;;;;;;;;;25.08;41.44;96868.19;5059595;28;19964;-72
2022/05/17 12:16:29;;;;;;;;;;;;;;;25.16;40.77;96866.66;5056274;28;20391;-72
2022/05/17 12:19:06;;;;;;;;;;;;;;;25.16;40.77;96859.44;5066645;28;19956;-72
2022/05/17 12:21:51;;;;;;;;;;;;;;;25.09;41.61;96870.59;5073566;28;19955;-75
2022/05/17 12:24:26;;;;;;;;;;;;;;;24.96;37.97;96847.22;5065623;28;19957;-72
2022/05/17 12:26:58;;;;;;;;;;;;;;;24.66;40.23;96870.13;5067474;28;19956;-72
2022/05/17 12:32:10;;;;;;;;;;;;;;;24.27;41.33;96872.16;5060024;28;19956;-72
2022/05/17 12:34:37;;;;;;;;;;;;;;;24.09;39.31;96855.06;5072810;28;20005;-73
2022/05/17 12:37:14;;;;;;;;;;;;;;;24.02;39.90;96851.97;5073048;28;20340;-72
2022/05/17 12:45:15;;;;;;;;;;;;;;;24.10;40.12;96845.91;5073725;28;19953;-72
2022/05/17 12:47:48;;;;;;;;;;;;;;;24.36;38.39;96828.56;5058013;28;19960;-72
2022/05/17 12:50:20;;;;;;;;;;;;;;;24.60;39.12;96850.66;5057928;28;19988;-72
2022/05/17 12:52:46;;;;;;;;;;;;;;;24.69;36.98;96827.41;5071946;28;19964;-72
2022/05/17 12:55:24;;;;;;;;;;;;;;;24.90;37.56;96822.44;5071023;28;20042;-76
2022/05/17 12:57:52;;;;;;;;;;;;;;;25.04;35.69;96817.00;5064409;28;20352;-72
2022/05/17 13:00:30;;;;;;;;;;;;;;;25.16;37.05;96829.91;5063239;28;19958;-72
2022/05/17 13:03:01;;;;;;;;;;;;;;;25.42;38.72;96823.97;5073546;28;19954;-72
2022/05/17 13:05:29;;;;;;;;;;;;;;;25.58;37.85;96819.84;5064304;28;20023;-72
2022/05/17 13:08:15;;;;;;;;;;;;;;;25.52;39.67;96829.13;5073598;28;19960;-72
2022/05/17 13:10:43;;;;;;;;;;;;;;;25.36;37.04;96812.56;5061978;28;20036;-72
2022/05/17 13:13:12;;;;;;;;;;;;;;;25.22;39.51;96822.53;5069715;28;20404;-72
2022/05/17 13:15:38;;;;;;;;;;;;;;;25.18;38.78;96826.91;5071824;28;19959;-72
2022/05/17 13:18:04;;;;;;;;;;;;;;;25.08;38.32;96823.34;5069327;28;19969;-72
2022/05/17 13:20:31;;;;;;;;;;;;;;;24.96;37.54;96819.63;5073536;28;20352;-72
2022/05/17 13:22:57;;;;;;;;;;;;;;;24.76;35.70;96802.88;5065041;28;20283;-72